TimeEDT,TemperatureF,Dew PointF,Humidity,Sea Level PressureIn,VisibilityMPH,Wind Direction,Wind SpeedMPH,Gust SpeedMPH,PrecipitationIn,Events,Conditions,WindDirDegrees,DateUTC
12:15 AM,65.7,51.3,60,30.00,10.0,South,6.9,-,N/A,,Clear,180,2012-10-25 04:15:00
12:35 AM,65.8,51.3,59,30.00,10.0,South,8.1,-,N/A,,Clear,180,2012-10-25 04:35:00
12:55 AM,65.3,51.1,60,30.00,10.0,South,8.1,-,N/A,,Clear,180,2012-10-25 04:55:00
1:15 AM,64.4,51.3,62,30.00,10.0,South,5.8,-,N/A,,Clear,180,2012-10-25 05:15:00
1:35 AM,64.0,51.1,63,29.99,10.0,South,8.1,-,N/A,,Clear,170,2012-10-25 05:35:00
1:55 AM,63.5,51.1,64,29.99,10.0,South,6.9,-,N/A,,Clear,180,2012-10-25 05:55:00
2:15 AM,63.3,51.1,64,29.99,10.0,South,5.8,-,N/A,,Clear,180,2012-10-25 06:15:00
2:35 AM,62.8,50.9,65,29.99,10.0,South,5.8,-,N/A,,Clear,170,2012-10-25 06:35:00
2:55 AM,62.2,50.9,66,29.98,10.0,South,5.8,-,N/A,,Clear,170,2012-10-25 06:55:00
3:15 AM,62.1,50.9,67,29.98,10.0,South,6.9,-,N/A,,Clear,180,2012-10-25 07:15:00
3:35 AM,62.1,50.9,67,29.97,10.0,South,6.9,-,N/A,,Clear,180,2012-10-25 07:35:00
3:55 AM,61.9,50.9,67,29.97,10.0,South,6.9,-,N/A,,Clear,190,2012-10-25 07:55:00
4:15 AM,61.3,50.5,68,29.97,10.0,South,6.9,-,N/A,,Clear,180,2012-10-25 08:15:00
4:35 AM,61.5,50.5,67,29.97,10.0,South,6.9,-,N/A,,Clear,190,2012-10-25 08:35:00
4:55 AM,61.5,50.5,67,29.97,10.0,South,8.1,-,N/A,,Clear,180,2012-10-25 08:55:00
5:15 AM,61.2,50.4,68,29.97,10.0,South,5.8,-,N/A,,Clear,190,2012-10-25 09:15:00
5:35 AM,60.8,50.4,68,29.97,10.0,South,6.9,-,N/A,,Clear,170,2012-10-25 09:35:00
5:55 AM,59.9,50.2,70,29.97,10.0,South,5.8,-,N/A,,Clear,170,2012-10-25 09:55:00
6:15 AM,59.2,50.2,72,29.96,10.0,South,5.8,-,N/A,,Clear,170,2012-10-25 10:15:00
6:35 AM,59.4,50.2,72,29.96,10.0,SSE,6.9,-,N/A,,Clear,160,2012-10-25 10:35:00
6:55 AM,59.4,50.0,71,29.97,10.0,South,5.8,-,N/A,,Clear,170,2012-10-25 10:55:00
7:15 AM,58.5,49.6,72,29.98,10.0,SSE,5.8,-,N/A,,Clear,160,2012-10-25 11:15:00
8:35 AM,59.4,50.5,73,29.98,10.0,South,5.8,-,N/A,,Clear,170,2012-10-25 12:35:00
8:55 AM,60.4,50.9,71,29.99,10.0,South,5.8,-,N/A,,Clear,190,2012-10-25 12:55:00
9:15 AM,62.1,51.6,69,30.00,10.0,South,6.9,-,N/A,,Clear,190,2012-10-25 13:15:00
9:35 AM,63.7,52.0,66,30.01,10.0,South,8.1,-,N/A,,Clear,190,2012-10-25 13:35:00
9:55 AM,65.1,52.2,63,30.01,10.0,South,8.1,-,N/A,,Clear,180,2012-10-25 13:55:00
10:15 AM,66.6,52.7,61,30.00,10.0,South,9.2,-,N/A,,Clear,170,2012-10-25 14:15:00
10:35 AM,67.6,52.7,59,29.99,10.0,South,8.1,-,N/A,,Clear,180,2012-10-25 14:35:00
10:55 AM,68.9,52.9,57,29.99,10.0,South,9.2,-,N/A,,Clear,190,2012-10-25 14:55:00
11:15 AM,70.0,53.2,55,29.99,10.0,South,11.5,18.4,N/A,,Clear,180,2012-10-25 15:15:00
11:35 AM,71.2,53.8,54,29.99,10.0,SSW,12.7,-,N/A,,Clear,200,2012-10-25 15:35:00
11:55 AM,72.7,54.3,52,29.98,10.0,South,10.4,-,N/A,,Clear,190,2012-10-25 15:55:00
12:15 PM,73.4,54.1,51,29.98,10.0,SSW,19.6,23.0,N/A,,Clear,200,2012-10-25 16:15:00
12:35 PM,73.9,54.0,50,29.97,10.0,SSW,17.3,26.5,N/A,,Clear,200,2012-10-25 16:35:00
12:55 PM,74.7,53.8,48,29.96,10.0,SSW,19.6,25.3,N/A,,Clear,200,2012-10-25 16:55:00
1:15 PM,74.5,53.6,48,29.95,10.0,SSW,12.7,25.3,N/A,,Clear,210,2012-10-25 17:15:00
1:35 PM,75.2,54.0,47,29.94,10.0,SSW,20.7,26.5,N/A,,Clear,210,2012-10-25 17:35:00
1:55 PM,76.1,54.7,47,29.93,10.0,SSW,18.4,25.3,N/A,,Clear,210,2012-10-25 17:55:00
2:15 PM,75.9,54.5,47,29.92,10.0,SSW,16.1,25.3,N/A,,Clear,210,2012-10-25 18:15:00
2:35 PM,77.2,54.5,45,29.92,10.0,SSW,13.8,21.9,N/A,,Clear,200,2012-10-25 18:35:00
2:55 PM,77.0,54.0,45,29.91,10.0,South,13.8,27.6,N/A,,Clear,190,2012-10-25 18:55:00
3:15 PM,77.4,53.6,44,29.91,10.0,South,16.1,24.2,N/A,,Clear,170,2012-10-25 19:15:00
3:35 PM,77.5,53.2,43,29.89,10.0,South,19.6,23.0,N/A,,Clear,180,2012-10-25 19:35:00
3:55 PM,77.9,53.6,43,29.89,10.0,South,15.0,19.6,N/A,,Clear,190,2012-10-25 19:55:00
4:15 PM,77.5,53.1,42,29.89,10.0,South,13.8,24.2,N/A,,Clear,180,2012-10-25 20:15:00
4:35 PM,77.9,53.1,42,29.88,10.0,South,17.3,26.5,N/A,,Clear,190,2012-10-25 20:35:00
4:55 PM,76.6,52.3,43,29.89,10.0,South,18.4,27.6,N/A,,Clear,180,2012-10-25 20:55:00
5:15 PM,77.0,52.7,43,29.89,10.0,SSW,13.8,-,N/A,,Clear,200,2012-10-25 21:15:00
5:35 PM,76.5,52.0,42,29.88,10.0,South,13.8,21.9,N/A,,Clear,190,2012-10-25 21:35:00
5:55 PM,75.7,52.0,43,29.88,10.0,South,15.0,23.0,N/A,,Clear,190,2012-10-25 21:55:00
6:35 PM,74.1,52.3,46,29.89,10.0,South,11.5,19.6,N/A,,Clear,180,2012-10-25 22:35:00
6:55 PM,73.4,52.7,48,29.89,10.0,South,12.7,18.4,N/A,,Clear,190,2012-10-25 22:55:00
7:15 PM,72.1,52.7,50,29.89,10.0,South,11.5,17.3,N/A,,Scattered Clouds,190,2012-10-25 23:15:00
7:35 PM,71.6,52.7,51,29.90,10.0,South,9.2,-,N/A,,Scattered Clouds,180,2012-10-25 23:35:00
7:55 PM,71.6,53.1,52,29.89,10.0,South,10.4,-,N/A,,Clear,180,2012-10-25 23:55:00
8:15 PM,71.1,53.1,53,29.90,10.0,South,9.2,-,N/A,,Clear,190,2012-10-26 00:15:00
8:35 PM,71.1,53.1,53,29.90,10.0,South,11.5,17.3,N/A,,Clear,180,2012-10-26 00:35:00
8:55 PM,70.7,53.1,54,29.89,10.0,South,10.4,17.3,N/A,,Clear,180,2012-10-26 00:55:00
9:15 PM,70.7,53.1,54,29.89,10.0,South,12.7,17.3,N/A,,Clear,180,2012-10-26 01:15:00
9:35 PM,70.7,53.2,54,29.90,10.0,South,11.5,19.6,N/A,,Clear,180,2012-10-26 01:35:00
9:55 PM,70.2,53.2,55,29.91,10.0,South,10.4,16.1,N/A,,Scattered Clouds,190,2012-10-26 01:55:00
10:15 PM,70.0,53.4,56,29.91,10.0,South,10.4,-,N/A,,Scattered Clouds,190,2012-10-26 02:15:00
10:35 PM,70.7,53.6,55,29.91,10.0,South,10.4,18.4,N/A,,Overcast,180,2012-10-26 02:35:00
10:55 PM,70.5,53.2,54,29.91,10.0,South,11.5,16.1,N/A,,Overcast,180,2012-10-26 02:55:00
11:15 PM,70.2,53.1,55,29.91,10.0,South,9.2,18.4,N/A,,Mostly Cloudy,190,2012-10-26 03:15:00
11:55 PM,57.2,50.4,78,29.96,10.0,WNW,16.1,21.9,N/A,,Overcast,300,2012-10-26 03:55:00